Honey Creek, WI

5:52 PM CDT on October 20, 2014 (GMT -0500)
Rochester, WI | Change Station
CLOSE
Current Station
Personal Weather Station
Location: Rochester, WI
Elevation: 780 ft
Nearby Weather Stations

Elev 780 ft 42.74 °N, 88.24 °W | Updated 0 second ago

Overcast
Overcast
54.3 °F
Feels Like 54.3 °F
N
6.0
Wind Variable Wind from NW
Gusts 10.7 mph

Today
High -- | Low -- °F
--% Chance of Precip.
Yesterday
High -- | Low -- °F
Precip. -- in
7:12 AM 6:02 PM
Waning Crescent, 8% visible
Pressure 29.95 in
Visibility 10.0 miles
Clouds Overcast 5000 ft
Dew Point 43 °F
Humidity 66%
Rainfall 0.00 in
Snow Depth Not available.
UV 0 out of 12
Pollen 1.60 out of 12
Air Quality Not available.
Flu Activity Sporadic
METAR KBUU 202235Z AUTO 34010KT 10SM OVC050 11/05 A2995 RMK AO2 T01120050

More Conditions Fewer Conditions

Pressure 29.95 in
Visibility 10.0 miles
Clouds Overcast 5000 ft
Dew Point 43 °F
Humidity 66%
Rainfall 0.00 in
Snow Depth Not available.
UV 0 out of 12
Pollen 1.60 out of 12
Air Quality Not available.
Flu Activity Sporadic
METAR KBUU 202235Z AUTO 34010KT 10SM OVC050 11/05 A2995 RMK AO2 T01120050

More Conditions Fewer Conditions

10-Day Weather Forecast

Almanac

Astronomy

Oct. 20, 2014 Rise Set
Actual Time 7:12 AM CDT 6:02 PM CDT
Civil Twilight 6:43 AM CDT 6:31 PM CDT
Nautical Twilight 6:10 AM CDT 7:04 PM CDT
Astronomical Twilight 5:38 AM CDT 7:37 PM CDT
Moon 3:56 AM CDT 4:29 PM CDT
Length of Visible Light 11h 47m
Length of Day
10h 50m
Waning Crescent, 8% of the Moon is Illuminated
Today
Waning Crescent
Oct 23
New
Oct 30
First Quarter
Nov 6
Full
Nov 14
Last Quarter

Today's Extremes

State Highs State Lows

Community

WunderPhotos

Upload Photos

1,763,541 photos uploaded!

WunderBlogs® & News

By Dr. Jeff Masters
Director of Meteorology, Weather Underground
By Kari Strenfel
Meteorologist, Weather Underground
By Christopher C. Burt
Weather Historian, Weather Underground
October 20, 2014
October 20, 2014
October 20, 2014

Nearby

Snow Depth

Station Depth Elevation
No new snow has been reported.

Earthquake Activity

City Distance Mag. Time & Date
No recent earthquake activity has been reported nearby.
Minimum magnitude displayed is 2.5.

Coastal Water Temperatures

Place Temperature
No Stations Reporting

Nearby Weather Stations